Time;durP1;ratioP1;P1;durP2;ratioP2;P2;SDS_P1;SDS_P2;PMS_P1;PMS_P2;Temp;Humidity;BMP_temperature;BMP_pressure;BME280_temperature;BME280_humidity;BME280_pressure;Samples;Min_cycle;Max_cycle;Signal;HPM_P1;HPM_P2
2022/01/26 00:06:42;;;;;;;76.88;47.92;;;0.30;99.90;;;;;;4980191;28;20046;-80
2022/01/26 00:09:09;;;;;;;86.25;50.22;;;0.30;99.90;;;;;;4980131;28;20375;-80
2022/01/26 00:11:36;;;;;;;83.63;48.22;;;0.30;99.90;;;;;;4980034;28;20089;-80
2022/01/26 00:14:09;;;;;;;91.40;52.75;;;0.30;99.90;;;;;;4979921;28;20023;-80
2022/01/26 00:16:40;;;;;;;93.00;55.25;;;0.30;99.90;;;;;;4979955;28;20407;-80
2022/01/26 00:19:09;;;;;;;87.70;53.78;;;0.30;99.90;;;;;;4962466;28;20031;-80
2022/01/26 00:21:40;;;;;;;96.50;53.22;;;0.30;99.90;;;;;;4985744;28;20106;-80
2022/01/26 00:29:13;;;;;;;89.15;54.17;;;0.10;99.90;;;;;;4984471;28;20038;-80
2022/01/26 00:40:07;;;;;;;81.53;50.50;;;-0.10;99.90;;;;;;4999022;28;20025;-79
2022/01/26 00:42:37;;;;;;;82.35;52.28;;;-0.10;99.90;;;;;;5013802;28;20459;-79
2022/01/26 00:45:04;;;;;;;95.13;53.15;;;-0.20;99.90;;;;;;4981247;28;20014;-80
2022/01/26 00:47:30;;;;;;;91.00;56.30;;;-0.30;99.90;;;;;;4998967;28;20089;-80
2022/01/26 00:50:01;;;;;;;92.82;54.95;;;-0.30;99.90;;;;;;4981138;28;20057;-80
2022/01/26 00:52:38;;;;;;;87.35;53.75;;;-0.30;99.90;;;;;;4980839;28;20042;-79
2022/01/26 00:55:06;;;;;;;87.40;54.33;;;-0.30;99.90;;;;;;4981052;28;20106;-79
2022/01/26 00:57:32;;;;;;;94.20;56.55;;;-0.30;99.90;;;;;;4998405;28;20026;-80
2022/01/26 00:59:59;;;;;;;94.18;55.70;;;-0.30;99.90;;;;;;4998460;28;20134;-80
2022/01/26 01:02:25;;;;;;;92.13;57.15;;;-0.30;99.90;;;;;;4998553;28;20030;-80
2022/01/26 01:04:51;;;;;;;89.57;57.00;;;-0.30;99.90;;;;;;4997927;28;20483;-80
2022/01/26 01:07:20;;;;;;;93.15;55.42;;;-0.40;99.90;;;;;;4980697;28;20026;-80
2022/01/26 01:09:47;;;;;;;91.38;56.40;;;-0.40;99.90;;;;;;4998467;28;20015;-80
2022/01/26 01:12:13;;;;;;;94.30;57.40;;;-0.40;99.90;;;;;;4998542;28;20090;-80
2022/01/26 01:14:41;;;;;;;90.05;54.88;;;-0.40;99.90;;;;;;4998541;28;20045;-80
2022/01/26 01:17:11;;;;;;;83.60;54.63;;;-0.50;99.90;;;;;;4997940;28;20065;-79
2022/01/26 01:19:39;;;;;;;83.82;54.38;;;-0.50;99.90;;;;;;4998748;28;20026;-79
2022/01/26 01:29:45;;;;;;;93.63;52.95;;;-0.50;99.90;;;;;;4998018;28;20165;-80
2022/01/26 01:32:14;;;;;;;87.03;53.38;;;-0.60;99.90;;;;;;4998108;28;20022;-80
2022/01/26 01:34:40;;;;;;;91.03;52.78;;;-0.60;99.90;;;;;;4999184;28;20054;-80
2022/01/26 01:37:13;;;;;;;82.75;50.70;;;-0.60;99.90;;;;;;4981731;28;20034;-80
2022/01/26 01:39:39;;;;;;;79.70;49.47;;;-0.60;99.90;;;;;;4980318;28;20050;-80
2022/01/26 01:42:07;;;;;;;92.53;54.50;;;-0.60;99.90;;;;;;4997812;28;20453;-80
2022/01/26 01:44:33;;;;;;;90.70;51.58;;;-0.70;99.90;;;;;;4997929;28;20474;-80
2022/01/26 01:46:59;;;;;;;89.55;53.15;;;-0.70;99.90;;;;;;4980151;28;20038;-80
2022/01/26 01:49:26;;;;;;;88.60;53.22;;;-0.70;99.90;;;;;;4997778;28;20030;-80
2022/01/26 01:51:57;;;;;;;92.82;54.53;;;-0.70;99.90;;;;;;4979668;28;20026;-80
2022/01/26 01:54:23;;;;;;;90.93;54.10;;;-0.70;99.90;;;;;;4997991;28;20052;-80
2022/01/26 01:56:55;;;;;;;87.15;54.15;;;-0.70;99.90;;;;;;4997807;28;20018;-80
2022/01/26 01:59:29;;;;;;;82.63;50.10;;;-0.70;99.90;;;;;;4980005;28;20117;-80
2022/01/26 02:01:57;;;;;;;81.93;49.88;;;-0.80;99.90;;;;;;4980192;28;20041;-80
2022/01/26 02:04:23;;;;;;;71.88;47.20;;;-0.70;99.90;;;;;;4980040;28;20027;-80
2022/01/26 02:06:49;;;;;;;79.55;50.05;;;-0.80;99.90;;;;;;4997595;28;20445;-80
2022/01/26 02:09:15;;;;;;;79.93;50.10;;;-0.70;99.90;;;;;;4997742;28;20088;-80
2022/01/26 02:11:46;;;;;;;85.15;51.85;;;-0.80;99.90;;;;;;5013126;28;20034;-80
2022/01/26 02:14:20;;;;;;;94.93;52.13;;;-0.70;99.90;;;;;;4979796;28;20065;-80
2022/01/26 02:57:12;;;;;;;109.80;57.65;;;-0.90;99.90;;;;;;5013120;28;20040;-82
2022/01/26 03:02:50;;;;;;;103.57;59.22;;;-0.90;99.90;;;;;;5015724;28;20037;-82
2022/01/26 03:05:07;;;;;;;101.43;58.40;;;-1.00;99.90;;;;;;5010135;28;20041;-81
2022/01/26 03:07:41;;;;;;;114.68;63.28;;;-1.00;99.90;;;;;;5012471;28;20073;-80
2022/01/26 03:10:21;;;;;;;107.45;64.05;;;-1.00;99.90;;;;;;5011888;28;20466;-82
2022/01/26 03:13:09;;;;;;;118.15;63.47;;;-1.00;99.90;;;;;;5018078;28;20052;-82
2022/01/26 03:15:50;;;;;;;103.90;62.40;;;-1.00;99.90;;;;;;5016525;28;20029;-82
2022/01/26 03:20:50;;;;;;;229.95;100.20;;;-1.00;99.90;;;;;;5015417;28;20024;-82
2022/01/26 03:28:58;;;;;;;172.80;91.67;;;-1.00;99.90;;;;;;4950340;28;1886722;-82
2022/01/26 03:36:20;;;;;;;152.18;81.97;;;-0.80;99.90;;;;;;5016879;28;20030;-81
2022/01/26 03:38:57;;;;;;;163.15;82.43;;;-0.80;99.90;;;;;;4998415;28;20030;-81
2022/01/26 03:41:38;;;;;;;122.80;72.47;;;-0.80;99.90;;;;;;5000619;28;20018;-82
2022/01/26 03:44:05;;;;;;;148.30;79.25;;;-0.80;99.90;;;;;;4997616;28;20021;-82
2022/01/26 03:46:31;;;;;;;155.70;84.32;;;-0.80;99.90;;;;;;5014577;28;20025;-82
2022/01/26 03:48:57;;;;;;;126.63;69.72;;;-0.90;99.90;;;;;;4998815;28;20022;-82
2022/01/26 03:51:23;;;;;;;131.02;73.25;;;-1.00;99.90;;;;;;5018117;28;20369;-82
2022/01/26 03:53:49;;;;;;;128.48;71.13;;;-1.00;99.90;;;;;;5018053;28;20053;-82
2022/01/26 03:56:15;;;;;;;136.32;74.55;;;-1.00;99.90;;;;;;5015679;28;20021;-82
2022/01/26 03:58:41;;;;;;;134.35;77.05;;;-1.00;99.90;;;;;;5032016;28;20109;-82
2022/01/26 04:01:07;;;;;;;124.07;72.05;;;-1.00;99.90;;;;;;4997755;28;20105;-80
2022/01/26 04:03:33;;;;;;;157.68;84.07;;;-1.00;99.90;;;;;;5000417;28;20076;-82
2022/01/26 04:05:59;;;;;;;163.30;83.93;;;-1.10;99.90;;;;;;5016022;28;20092;-83
2022/01/26 04:08:29;;;;;;;168.10;90.60;;;-1.10;99.90;;;;;;5017106;28;20053;-79
2022/01/26 04:13:36;;;;;;;203.88;101.65;;;-1.20;99.90;;;;;;5018271;28;20069;-81
2022/01/26 04:16:02;;;;;;;155.05;81.45;;;-1.20;99.90;;;;;;5016693;28;20018;-79
2022/01/26 04:18:34;;;;;;;130.63;76.70;;;-1.20;99.90;;;;;;5017066;28;20077;-78
2022/01/26 04:21:13;;;;;;;121.25;72.78;;;-1.20;99.90;;;;;;5014443;28;20025;-79
2022/01/26 04:24:24;;;;;;;121.75;72.75;;;-1.30;99.90;;;;;;5015129;28;20473;-81
2022/01/26 04:26:34;;;;;;;124.72;72.40;;;-1.30;99.90;;;;;;5006548;28;20037;-81
2022/01/26 04:29:05;;;;;;;121.68;68.88;;;-1.30;99.90;;;;;;5015015;28;20060;-81
2022/01/26 04:31:31;;;;;;;121.60;69.93;;;-1.30;99.90;;;;;;4999046;28;20033;-78
2022/01/26 04:33:57;;;;;;;117.93;67.57;;;-1.30;99.90;;;;;;5014293;28;20026;-81
2022/01/26 04:36:30;;;;;;;132.48;77.80;;;-1.30;99.90;;;;;;5015247;28;20022;-81
2022/01/26 04:39:00;;;;;;;118.05;70.25;;;-1.30;99.90;;;;;;4996410;28;20034;-81
2022/01/26 04:43:57;;;;;;;141.45;84.88;;;-1.40;99.90;;;;;;5017311;28;20529;-81
2022/01/26 04:46:24;;;;;;;;;;;-1.50;99.90;;;;;;5015965;28;20437;-81
2022/01/26 04:48:50;;;;;;;116.32;65.78;;;-1.50;99.90;;;;;;5016806;28;20329;-81
2022/01/26 04:51:16;;;;;;;109.80;67.65;;;-1.50;99.90;;;;;;5013459;28;20037;-81
2022/01/26 04:53:42;;;;;;;105.80;66.88;;;-1.50;99.90;;;;;;5014909;28;20025;-81
2022/01/26 04:56:08;;;;;;;106.43;66.75;;;-1.50;99.90;;;;;;4993883;28;20130;-81
2022/01/26 04:58:34;;;;;;;127.53;78.10;;;-1.50;99.90;;;;;;5004553;28;20065;-80
2022/01/26 05:01:00;;;;;;;127.07;73.57;;;-1.40;99.90;;;;;;4998395;28;20022;-80
2022/01/26 05:03:26;;;;;;;126.35;75.65;;;-1.40;99.90;;;;;;4998598;28;20153;-81
2022/01/26 05:05:52;;;;;;;113.32;67.68;;;-1.40;99.90;;;;;;4998072;28;20022;-80
2022/01/26 05:08:18;;;;;;;107.85;64.00;;;-1.50;99.90;;;;;;4998525;28;20475;-81
2022/01/26 05:10:44;;;;;;;98.05;61.45;;;-1.50;99.90;;;;;;4998633;28;20390;-81
2022/01/26 05:13:13;;;;;;;98.10;62.85;;;-1.50;99.90;;;;;;4998282;28;20030;-80
2022/01/26 05:15:40;;;;;;;102.72;62.65;;;-1.50;99.90;;;;;;4998161;28;20034;-80
2022/01/26 05:18:06;;;;;;;93.47;58.30;;;-1.60;99.90;;;;;;4998086;28;20030;-80
2022/01/26 05:20:33;;;;;;;98.80;59.45;;;-1.60;99.90;;;;;;5002924;28;20026;-80
2022/01/26 05:22:59;;;;;;;93.22;56.03;;;-1.70;99.90;;;;;;4998250;28;20025;-81
2022/01/26 05:25:25;;;;;;;85.88;56.97;;;-1.70;99.90;;;;;;4998087;28;20465;-80
2022/01/26 05:27:51;;;;;;;88.65;56.38;;;-1.70;99.90;;;;;;4998086;28;20080;-80
2022/01/26 05:30:18;;;;;;;85.40;53.47;;;-1.70;99.90;;;;;;4997178;28;20078;-80
2022/01/26 05:32:44;;;;;;;83.53;53.00;;;-1.70;99.90;;;;;;4998112;28;20518;-80
2022/01/26 05:35:10;;;;;;;90.70;55.42;;;-1.70;99.90;;;;;;5000635;28;20067;-80
2022/01/26 05:37:36;;;;;;;86.07;54.38;;;-1.70;99.90;;;;;;4980234;28;20030;-80
2022/01/26 05:40:04;;;;;;;85.72;52.40;;;-1.70;99.90;;;;;;4997820;28;20050;-80
2022/01/26 05:42:30;;;;;;;90.20;55.38;;;-1.70;99.90;;;;;;4980213;28;20030;-80
2022/01/26 05:45:02;;;;;;;88.30;53.72;;;-1.70;99.90;;;;;;4997769;28;20101;-79
2022/01/26 05:47:31;;;;;;;76.03;49.25;;;-1.70;99.90;;;;;;4997331;28;20018;-80
2022/01/26 05:49:57;;;;;;;77.97;52.35;;;-1.80;99.90;;;;;;4980262;28;20077;-80
2022/01/26 05:52:23;;;;;;;82.45;51.72;;;-1.80;99.90;;;;;;4997712;28;20397;-80
2022/01/26 05:54:49;;;;;;;82.82;54.78;;;-1.80;99.90;;;;;;4997518;28;20097;-77
2022/01/26 05:57:14;;;;;;;80.75;53.80;;;-1.80;99.90;;;;;;4997643;28;20101;-79
2022/01/26 05:59:40;;;;;;;89.97;54.67;;;-1.80;99.90;;;;;;4997344;28;20022;-80
2022/01/26 06:02:06;;;;;;;81.75;52.05;;;-1.70;99.90;;;;;;4980104;28;20120;-80
2022/01/26 06:04:32;;;;;;;94.88;58.33;;;-1.70;99.90;;;;;;4980069;28;20483;-79
2022/01/26 06:06:58;;;;;;;82.55;50.90;;;-1.70;99.90;;;;;;4997297;28;20564;-80
2022/01/26 06:09:24;;;;;;;69.53;44.55;;;-1.70;99.90;;;;;;4997547;28;20037;-79
2022/01/26 06:11:51;;;;;;;59.53;38.17;;;-1.70;99.90;;;;;;4997565;28;20062;-79
2022/01/26 06:14:17;;;;;;;58.50;39.20;;;-1.70;99.90;;;;;;4980062;28;20034;-79
2022/01/26 06:16:43;;;;;;;59.72;40.30;;;-1.70;99.90;;;;;;4980150;28;20113;-79
2022/01/26 06:19:09;;;;;;;90.82;55.92;;;-1.70;99.90;;;;;;4997419;28;20022;-79
2022/01/26 06:21:35;;;;;;;63.22;39.58;;;-1.70;99.90;;;;;;5003097;28;20022;-79
2022/01/26 06:24:00;;;;;;;61.60;42.08;;;-1.70;99.90;;;;;;4997388;28;20026;-79
2022/01/26 06:26:26;;;;;;;65.75;42.72;;;-1.70;99.90;;;;;;4997399;28;20054;-79
2022/01/26 06:28:52;;;;;;;67.47;43.10;;;-1.70;99.90;;;;;;4997132;28;20042;-79
2022/01/26 06:31:19;;;;;;;83.90;46.92;;;-1.70;99.90;;;;;;4979930;28;20026;-79
2022/01/26 06:33:47;;;;;;;71.82;46.13;;;-1.70;99.90;;;;;;4997301;28;20037;-79
2022/01/26 06:36:15;;;;;;;60.30;41.13;;;-1.80;99.90;;;;;;4999761;28;20033;-79
2022/01/26 06:38:43;;;;;;;66.72;45.17;;;-1.80;99.90;;;;;;4997241;28;20437;-79
2022/01/26 06:41:10;;;;;;;70.28;44.70;;;-1.80;99.90;;;;;;4996851;28;20076;-79
2022/01/26 06:43:45;;;;;;;70.38;45.65;;;-1.90;99.90;;;;;;4979527;28;20041;-79
2022/01/26 06:46:18;;;;;;;70.53;45.03;;;-1.80;99.90;;;;;;4997462;28;20018;-79
2022/01/26 06:49:02;;;;;;;69.07;43.22;;;-1.80;99.90;;;;;;4997470;28;20033;-79
2022/01/26 06:51:28;;;;;;;72.82;45.25;;;-1.90;99.90;;;;;;4997040;28;20105;-79
2022/01/26 06:53:54;;;;;;;79.88;44.83;;;-1.90;99.90;;;;;;4997389;28;20065;-79
2022/01/26 06:56:19;;;;;;;55.58;37.38;;;-1.90;99.90;;;;;;4997484;28;20030;-79
2022/01/26 06:58:45;;;;;;;61.47;40.90;;;-1.90;99.90;;;;;;4997383;28;20077;-79
2022/01/26 07:01:11;;;;;;;57.80;38.08;;;-1.90;99.90;;;;;;4997467;28;20177;-79
2022/01/26 07:03:37;;;;;;;54.83;37.03;;;-1.90;99.90;;;;;;5000881;28;20096;-79
2022/01/26 07:06:03;;;;;;;50.75;35.78;;;-1.90;99.90;;;;;;5000470;28;20029;-79
2022/01/26 07:08:29;;;;;;;54.88;35.75;;;-1.90;99.90;;;;;;5001065;28;20054;-79
2022/01/26 07:10:55;;;;;;;50.35;35.83;;;-1.90;99.90;;;;;;5001139;28;20049;-79
2022/01/26 07:13:23;;;;;;;54.92;38.40;;;-1.90;99.90;;;;;;5000826;28;20034;-79
2022/01/26 07:23:46;;;;;;;73.88;42.60;;;-2.00;99.90;;;;;;5000460;28;20022;-79
2022/01/26 07:26:12;;;;;;;62.00;39.13;;;-2.00;99.90;;;;;;4983034;28;20074;-79
2022/01/26 07:28:39;;;;;;;65.40;42.42;;;-2.10;99.90;;;;;;5000231;28;20030;-79
2022/01/26 07:31:07;;;;;;;64.03;42.25;;;-2.10;99.90;;;;;;4982752;28;20490;-79
2022/01/26 07:33:33;;;;;;;65.88;43.30;;;-2.10;99.90;;;;;;4982981;28;20134;-76
2022/01/26 07:35:59;;;;;;;71.20;44.45;;;-2.00;99.90;;;;;;5003147;28;20109;-77
2022/01/26 07:38:26;;;;;;;68.95;45.78;;;-2.00;99.90;;;;;;5000032;28;20073;-77
2022/01/26 07:40:53;;;;;;;82.35;49.60;;;-1.80;99.90;;;;;;5000107;28;20101;-77
2022/01/26 07:43:20;;;;;;;78.93;48.95;;;-1.80;99.90;;;;;;5015107;28;20037;-77
2022/01/26 07:45:46;;;;;;;86.68;49.53;;;-1.60;99.90;;;;;;4982760;28;20494;-77
2022/01/26 07:48:12;;;;;;;82.07;50.85;;;-1.60;99.90;;;;;;4999889;28;20113;-77
2022/01/26 07:50:38;;;;;;;83.50;50.03;;;-1.50;99.90;;;;;;4982498;28;20054;-77
2022/01/26 07:53:04;;;;;;;83.05;50.20;;;-1.40;99.90;;;;;;4982229;28;20117;-76
2022/01/26 07:55:31;;;;;;;90.97;55.20;;;-1.40;99.90;;;;;;4999888;28;20126;-79
2022/01/26 07:57:57;;;;;;;85.90;55.72;;;-1.30;99.90;;;;;;4999618;28;20026;-77
2022/01/26 08:00:24;;;;;;;89.00;55.38;;;-1.30;99.90;;;;;;4999747;28;20474;-77
2022/01/26 08:02:50;;;;;;;88.25;55.30;;;-1.30;99.90;;;;;;4997120;28;20074;-77
2022/01/26 08:05:18;;;;;;;79.43;52.30;;;-1.20;99.90;;;;;;5006052;28;20490;-77
2022/01/26 08:07:44;;;;;;;86.22;54.80;;;-1.10;99.90;;;;;;4998516;28;20031;-76
2022/01/26 08:10:11;;;;;;;81.22;49.75;;;-1.10;99.90;;;;;;4999755;28;20161;-76
2022/01/26 08:12:38;;;;;;;80.70;51.83;;;-1.10;99.90;;;;;;4998780;28;20026;-75
2022/01/26 08:15:07;;;;;;;77.45;46.88;;;-1.10;99.90;;;;;;4999145;28;20018;-77
2022/01/26 08:17:34;;;;;;;98.03;56.22;;;-1.00;99.90;;;;;;4981321;28;20030;-75
2022/01/26 08:20:00;;;;;;;106.22;61.53;;;-1.00;99.90;;;;;;5002784;28;20059;-76
2022/01/26 08:22:27;;;;;;;321.52;119.97;;;-1.00;99.90;;;;;;5001993;28;20034;-76
2022/01/26 08:24:54;;;;;;;204.60;79.43;;;-0.90;99.90;;;;;;4999321;28;20022;-76
2022/01/26 08:27:22;;;;;;;448.23;172.98;;;-0.90;99.90;;;;;;4981892;28;20094;-75
2022/01/26 08:29:52;;;;;;;1389.85;549.25;;;-0.90;99.90;;;;;;5008034;28;20414;-76
2022/01/26 08:32:17;;;;;;;892.17;385.27;;;-0.80;99.90;;;;;;5004067;28;20081;-76
2022/01/26 08:34:43;;;;;;;841.50;338.40;;;-0.80;99.90;;;;;;5007932;28;20030;-75
2022/01/26 08:37:09;;;;;;;478.55;172.48;;;-0.70;99.90;;;;;;4988964;28;20021;-75
2022/01/26 08:39:36;;;;;;;1332.53;505.05;;;-0.70;99.90;;;;;;5017562;28;20108;-75
2022/01/26 08:42:05;;;;;;;1984.38;682.15;;;-0.60;99.90;;;;;;4997152;28;20022;-76
2022/01/26 08:44:32;;;;;;;1123.90;438.60;;;-0.60;99.90;;;;;;5000021;28;20029;-75
2022/01/26 08:46:58;;;;;;;996.88;404.02;;;-0.60;99.90;;;;;;5014519;28;20014;-76
2022/01/26 08:49:27;;;;;;;920.50;368.85;;;-0.50;99.90;;;;;;5015100;28;20049;-76
2022/01/26 08:51:54;;;;;;;1272.50;491.63;;;-0.50;99.90;;;;;;5005543;28;20034;-77
2022/01/26 08:54:22;;;;;;;744.28;319.58;;;-0.40;99.90;;;;;;4998321;28;20018;-77
2022/01/26 08:56:52;;;;;;;536.47;237.43;;;-0.40;99.90;;;;;;5002967;28;20052;-77
2022/01/26 08:59:19;;;;;;;947.85;423.90;;;-0.30;99.90;;;;;;5002110;28;20030;-77
2022/01/26 09:01:45;;;;;;;930.53;402.88;;;-0.30;99.90;;;;;;4998414;28;20027;-77
2022/01/26 09:04:11;;;;;;;811.45;355.05;;;-0.20;99.90;;;;;;4980882;28;20045;-77
2022/01/26 09:06:49;;;;;;;695.25;290.08;;;-0.10;99.90;;;;;;4998338;28;20538;-77
2022/01/26 09:09:16;;;;;;;1481.28;544.83;;;-0.10;99.90;;;;;;4980727;28;20041;-77
2022/01/26 09:11:42;;;;;;;620.40;229.27;;;-0.10;99.90;;;;;;4980654;28;20026;-77
2022/01/26 09:14:10;;;;;;;545.92;195.70;;;0.00;99.90;;;;;;4998125;28;20085;-76
2022/01/26 09:16:37;;;;;;;475.92;157.90;;;0.10;99.90;;;;;;4998537;28;20041;-76
2022/01/26 09:19:20;;;;;;;1535.05;526.50;;;0.10;99.90;;;;;;4998118;28;20035;-77
2022/01/26 09:21:46;;;;;;;199.18;76.82;;;0.20;99.90;;;;;;5012320;28;20045;-77
2022/01/26 09:24:12;;;;;;;459.63;149.13;;;0.30;99.90;;;;;;4982233;28;20073;-78
2022/01/26 09:26:38;;;;;;;836.22;304.30;;;0.30;99.90;;;;;;4998043;28;20483;-79
2022/01/26 09:29:04;;;;;;;525.45;171.82;;;0.40;99.90;;;;;;4997177;28;20038;-78
2022/01/26 09:31:30;;;;;;;199.63;103.20;;;0.50;99.90;;;;;;4998141;28;20025;-78
2022/01/26 09:33:56;;;;;;;132.48;71.43;;;0.60;99.90;;;;;;4997865;28;20026;-78
2022/01/26 09:36:21;;;;;;;1073.63;353.88;;;0.60;99.90;;;;;;5001230;28;20038;-77
2022/01/26 09:38:47;;;;;;;91.68;49.58;;;0.70;99.90;;;;;;4997975;28;20034;-77
2022/01/26 09:41:14;;;;;;;288.35;90.95;;;0.80;99.90;;;;;;4980761;28;20077;-78
2022/01/26 09:43:43;;;;;;;104.15;51.05;;;0.90;99.90;;;;;;4980529;28;20022;-78
2022/01/26 09:46:14;;;;;;;79.35;46.08;;;0.90;99.90;;;;;;4980391;28;20026;-78
2022/01/26 09:48:42;;;;;;;80.85;45.17;;;1.00;99.90;;;;;;4997646;28;20085;-77
2022/01/26 09:51:12;;;;;;;73.07;43.95;;;1.10;99.90;;;;;;4997698;28;20033;-78
2022/01/26 09:53:38;;;;;;;66.78;45.08;;;1.20;99.90;;;;;;4997923;28;20069;-78
2022/01/26 09:56:04;;;;;;;173.07;64.95;;;1.30;99.90;;;;;;4995723;28;20057;-78
2022/01/26 09:58:30;;;;;;;484.63;161.80;;;1.30;99.90;;;;;;5004763;28;20390;-79
2022/01/26 10:01:01;;;;;;;114.32;52.58;;;1.40;99.90;;;;;;4997253;28;20050;-78
2022/01/26 10:03:32;;;;;;;54.97;35.30;;;1.50;99.90;;;;;;4997713;28;20387;-78
2022/01/26 10:05:58;;;;;;;54.67;36.97;;;1.50;99.90;;;;;;4997374;28;20513;-79
2022/01/26 10:19:00;;;;;;;81.70;55.50;;;1.90;99.90;;;;;;4997599;28;20061;-78
2022/01/26 10:21:26;;;;;;;57.00;35.00;;;2.00;99.90;;;;;;5003154;28;20023;-78
2022/01/26 10:23:56;;;;;;;53.85;37.67;;;2.10;99.90;;;;;;5008924;28;20042;-78
2022/01/26 10:26:22;;;;;;;59.33;38.20;;;2.20;99.90;;;;;;4997307;28;20019;-77
2022/01/26 10:28:57;;;;;;;51.35;38.05;;;2.30;99.90;;;;;;5009690;28;20407;-77
2022/01/26 10:31:29;;;;;;;57.25;39.72;;;2.30;99.90;;;;;;4997008;28;20061;-78
2022/01/26 10:34:00;;;;;;;60.60;42.42;;;2.50;99.90;;;;;;4996738;28;20082;-77
2022/01/26 10:36:38;;;;;;;51.90;37.63;;;2.60;99.90;;;;;;5000259;28;20038;-78
2022/01/26 10:39:07;;;;;;;62.63;43.10;;;2.60;99.90;;;;;;5001173;28;20034;-77
2022/01/26 10:41:34;;;;;;;59.90;41.42;;;2.70;99.90;;;;;;4997610;28;20018;-79
2022/01/26 10:44:02;;;;;;;64.18;44.83;;;2.80;99.90;;;;;;5000393;28;20026;-79
2022/01/26 10:46:42;;;;;;;74.50;48.85;;;2.90;99.90;;;;;;4987426;28;20501;-78
2022/01/26 10:49:31;;;;;;;68.15;47.38;;;3.00;99.90;;;;;;5000854;28;20537;-78
2022/01/26 10:52:03;;;;;;;77.28;54.38;;;3.00;99.90;;;;;;4983149;28;20034;-78
2022/01/26 10:57:03;;;;;;;72.43;51.53;;;3.20;99.90;;;;;;5000677;28;20018;-78
2022/01/26 10:59:28;;;;;;;69.22;51.70;;;3.30;99.90;;;;;;5000808;28;20034;-77
2022/01/26 11:01:59;;;;;;;70.90;47.47;;;3.40;99.90;;;;;;4981714;28;20129;-76
2022/01/26 11:04:26;;;;;;;64.28;48.78;;;3.50;99.90;;;;;;5000824;28;20077;-76
2022/01/26 11:06:53;;;;;;;67.68;48.60;;;3.60;99.90;;;;;;5000701;28;20058;-76
2022/01/26 11:09:23;;;;;;;68.13;47.63;;;3.70;99.90;;;;;;5000623;28;20031;-76
2022/01/26 11:12:00;;;;;;;68.20;48.28;;;3.70;99.90;;;;;;5000950;28;20034;-76
2022/01/26 11:14:26;;;;;;;63.63;43.78;;;3.80;99.90;;;;;;5001156;28;20131;-76
2022/01/26 11:16:59;;;;;;;64.45;46.75;;;3.90;99.90;;;;;;4974792;28;20122;-76
2022/01/26 11:19:42;;;;;;;73.25;48.13;;;4.00;99.90;;;;;;4996491;28;20030;-76
2022/01/26 11:22:17;;;;;;;70.22;46.78;;;4.10;99.90;;;;;;4981086;28;20415;-78
2022/01/26 11:24:48;;;;;;;76.07;47.50;;;4.30;99.90;;;;;;4992057;28;20040;-77
2022/01/26 11:27:16;;;;;;;78.20;49.33;;;4.40;99.90;;;;;;4982870;28;20073;-77
2022/01/26 11:29:49;;;;;;;66.18;45.25;;;4.50;99.90;;;;;;4972947;28;20396;-77
2022/01/26 11:32:32;;;;;;;65.45;44.75;;;4.60;99.90;;;;;;4963792;28;20057;-77
2022/01/26 11:35:00;;;;;;;64.05;42.60;;;4.70;99.90;;;;;;4965854;28;20034;-78
2022/01/26 11:37:41;;;;;;;65.65;44.05;;;4.80;99.90;;;;;;4980762;28;20030;-77
2022/01/26 11:45:25;;;;;;;57.22;40.05;;;5.10;99.90;;;;;;4980586;28;20034;-77
2022/01/26 11:48:24;;;;;;;62.45;40.85;;;5.20;99.90;;;;;;4978340;28;20029;-77
2022/01/26 11:51:02;;;;;;;61.45;41.20;;;5.30;99.90;;;;;;4948508;28;20049;-77
2022/01/26 11:53:29;;;;;;;59.17;40.47;;;5.30;99.90;;;;;;4979890;28;20446;-77
2022/01/26 11:56:06;;;;;;;58.97;40.65;;;5.50;99.90;;;;;;4962608;28;20022;-77
2022/01/26 11:58:42;;;;;;;56.28;38.70;;;5.60;99.90;;;;;;4980637;28;20023;-77
2022/01/26 12:03:44;;;;;;;58.40;38.58;;;5.70;99.90;;;;;;4980514;28;20033;-77
2022/01/26 12:06:20;;;;;;;61.30;38.97;;;5.80;99.90;;;;;;4979997;28;20376;-77
2022/01/26 12:08:46;;;;;;;58.78;38.00;;;5.90;99.90;;;;;;4980241;28;20098;-79
2022/01/26 12:11:15;;;;;;;48.25;34.40;;;5.90;99.90;;;;;;4980087;28;20400;-78
2022/01/26 12:13:42;;;;;;;45.00;31.15;;;6.00;99.90;;;;;;4979932;28;20030;-78
2022/01/26 12:16:22;;;;;;;43.80;32.47;;;6.10;99.90;;;;;;4962532;28;20035;-77
2022/01/26 12:41:24;;;;;;;49.20;28.27;;;6.90;99.90;;;;;;4999032;28;20018;-78
2022/01/26 12:43:56;;;;;;;48.50;31.08;;;7.00;99.90;;;;;;5016019;28;20025;-78
2022/01/26 12:46:30;;;;;;;44.53;32.97;;;7.20;99.90;;;;;;4986522;28;20018;-77
2022/01/26 12:49:01;;;;;;;148.65;56.72;;;7.20;99.90;;;;;;4981154;28;20030;-78
2022/01/26 12:51:28;;;;;;;249.43;89.35;;;7.30;99.90;;;;;;5005278;28;20029;-77
2022/01/26 12:54:02;;;;;;;57.47;35.72;;;7.30;99.90;;;;;;4991289;28;20450;-78
2022/01/26 12:56:30;;;;;;;52.38;32.70;;;7.40;99.90;;;;;;4998586;28;20069;-77
2022/01/26 12:59:05;;;;;;;103.60;49.25;;;7.50;99.90;;;;;;4997813;28;20595;-78
2022/01/26 13:01:31;;;;;;;51.47;35.78;;;7.60;99.90;;;;;;4983074;28;20134;-78
2022/01/26 13:04:02;;;;;;;46.30;32.80;;;7.60;99.90;;;;;;4994143;28;20034;-78
2022/01/26 13:06:36;;;;;;;57.22;34.97;;;7.70;99.90;;;;;;4981467;28;20026;-78
2022/01/26 13:09:25;;;;;;;55.25;34.45;;;7.80;99.90;;;;;;4981094;28;20517;-78
2022/01/26 13:11:53;;;;;;;55.20;36.55;;;7.90;99.90;;;;;;5014051;28;20029;-78
2022/01/26 13:14:25;;;;;;;52.40;33.72;;;7.90;99.90;;;;;;5015895;28;20030;-78
2022/01/26 13:19:49;;;;;;;50.90;34.20;;;8.10;99.90;;;;;;5013583;28;20036;-78
2022/01/26 13:22:39;;;;;;;44.67;32.22;;;8.10;99.90;;;;;;5012652;28;20118;-78
2022/01/26 13:25:15;;;;;;;42.67;30.95;;;8.20;99.90;;;;;;5016647;28;20018;-78
2022/01/26 13:28:18;;;;;;;50.72;31.67;;;8.20;99.90;;;;;;5007621;28;20028;-81
2022/01/26 13:31:11;;;;;;;51.20;31.55;;;8.20;99.90;;;;;;4997869;28;20066;-78
2022/01/26 13:34:39;;;;;;;44.90;31.95;;;8.20;99.90;;;;;;4997901;28;20019;-78
2022/01/26 13:39:50;;;;;;;55.25;31.52;;;8.30;99.90;;;;;;4973426;28;20402;-78
2022/01/26 13:50:12;;;;;;;49.17;30.63;;;8.50;99.90;;;;;;4997744;28;20033;-81
2022/01/26 13:52:47;;;;;;;43.70;31.75;;;8.50;99.90;;;;;;4997955;28;20387;-81
2022/01/26 14:00:29;;;;;;;49.90;29.88;;;8.60;99.90;;;;;;4998087;28;20130;-81
2022/01/26 14:02:59;;;;;;;45.45;31.02;;;8.60;99.90;;;;;;4997672;28;20026;-81
2022/01/26 14:05:25;;;;;;;44.00;31.08;;;8.60;99.90;;;;;;4997540;28;20049;-81
2022/01/26 14:07:54;;;;;;;42.30;27.88;;;8.70;99.90;;;;;;4997660;28;20505;-81
2022/01/26 14:10:20;;;;;;;39.40;26.65;;;8.70;99.90;;;;;;4998206;28;20121;-81
2022/01/26 14:12:48;;;;;;;43.40;28.50;;;8.70;99.90;;;;;;5001697;28;20443;-80
2022/01/26 14:15:20;;;;;;;39.75;26.25;;;8.70;99.90;;;;;;5001840;28;20030;-81
2022/01/26 14:18:02;;;;;;;37.75;23.38;;;8.70;99.90;;;;;;5001544;28;20031;-80
2022/01/26 14:25:28;;;;;;;39.88;24.38;;;8.90;99.90;;;;;;5001168;28;20029;-81
2022/01/26 14:27:59;;;;;;;43.15;24.13;;;9.00;99.90;;;;;;5001889;28;20022;-82
2022/01/26 14:33:33;;;;;;;32.58;23.65;;;8.90;99.90;;;;;;4981509;28;20030;-81
2022/01/26 14:54:55;;;;;;;22.58;14.23;;;8.70;99.90;;;;;;4981996;28;20030;-81
2022/01/26 15:30:15;;;;;;;18.25;13.52;;;7.30;99.90;;;;;;4992763;28;20064;-80
2022/01/26 15:49:46;;;;;;;26.92;19.05;;;6.60;99.90;;;;;;5000391;28;20513;-78
2022/01/26 16:08:30;;;;;;;31.05;18.30;;;6.40;99.90;;;;;;4999837;28;20034;-79
2022/01/26 16:38:17;;;;;;;22.60;15.77;;;5.70;99.90;;;;;;4999462;28;20398;-78
2022/01/26 17:25:00;;;;;;;37.10;23.65;;;5.20;99.90;;;;;;4996041;28;20062;-80
2022/01/26 18:16:35;;;;;;;39.53;26.95;;;4.60;99.90;;;;;;4997536;28;20036;-80
2022/01/26 18:31:51;;;;;;;41.60;29.60;;;4.30;99.90;;;;;;4997480;28;20029;-80
2022/01/26 18:33:11;;;;;;;40.17;29.13;;;4.20;99.90;;;;;;4998308;28;20033;-80
2022/01/26 18:49:20;;;;;;;50.28;35.38;;;4.10;99.90;;;;;;5003758;28;20036;-80
2022/01/26 18:51:55;;;;;;;64.78;38.97;;;4.00;99.90;;;;;;4979505;28;20041;-80
2022/01/26 18:54:24;;;;;;;73.57;45.78;;;4.10;99.90;;;;;;4997032;28;20026;-80
2022/01/26 18:56:51;;;;;;;66.53;43.33;;;4.00;99.90;;;;;;4997187;28;20038;-80
2022/01/26 18:59:18;;;;;;;57.00;38.45;;;3.90;99.90;;;;;;4972201;28;20049;-80
2022/01/26 19:01:44;;;;;;;60.35;40.83;;;3.90;99.90;;;;;;5002475;28;20078;-79
2022/01/26 19:04:10;;;;;;;58.13;38.75;;;3.90;99.90;;;;;;5004439;28;20022;-79
2022/01/26 19:06:39;;;;;;;51.45;37.45;;;3.80;99.90;;;;;;4983177;28;20085;-78
2022/01/26 19:09:06;;;;;;;51.65;36.20;;;3.80;99.90;;;;;;5003587;28;20022;-79
2022/01/26 19:11:33;;;;;;;53.80;38.20;;;3.60;99.90;;;;;;5003001;28;20110;-78
2022/01/26 19:14:00;;;;;;;56.58;39.50;;;3.60;99.90;;;;;;5002184;28;20498;-80
2022/01/26 19:16:37;;;;;;;54.17;37.47;;;3.50;99.90;;;;;;5002798;28;20037;-79